Ride Results

Eden Creek 1 (21-02-2009)
Ride distance: 80.0 km

Outcomes - Eden Creek 1 (21-02-2009)
Division No. of Entries Retired / DNE Completed Withdrawn Ineligible V/O Percentage Completed
HW 8 - 5 2 - 1 62.50%
MW 17 - 13 1 - 3 76.47%
LW 6 - 6 - - - 100.00%
JN 7 - 5 1 - 1 71.43%
Totals 38 - 29 4 - 5 76.32%
Results - Eden Creek 1 (21-02-2009)
No. Rider Horse Place Time Leg Speeds Total
Km/Hr
H/R bpm
Heavyweight
26 Paul Lengronne Banjo Star 1 7:30:00 10.1, 11.2 10.67 32, 52, 56 (Avg:54)
15 Allyson Taylor Everon Park Shebell 2 (BC) 8:38:00 8.2, 10.5 9.27 35, 48, 50 (Avg:49)
31 Paul Fitzgerald Lanamere Roulette 3 8:57:00 8.1, 9.9 8.94 40, 44, 50 (Avg:47)
14 Gregg Fields Cameo Caruzo 4 9:09:00 6.9, 11.7 8.74 37, 42, 60 (Avg:51)
17 Maurice Gray Chazar Fire Nic Ice 5 9:23:00 7.9, 9.1 8.53 40, 53, 54 (Avg:53)
30 Matthew Gadsby Country Gentleman Lame L2 0:00:00 11.0, 12.9 - 38, 54, 58 (Avg:56)
10 Allan Caslick Razorback Hot Pepper Withdrawn L1 0:00:00 - - 39, 54 (Avg:54)
38 Peter Toft Tora Blar-Zay Withdrawn L1 0:00:00 - - 29, 42 (Avg:42)
Middleweight
29 Marion Lengronne Follydown Gai Emerald 1 7:30:00 9.3, 12.3 10.67 35, 51, 54 (Avg:52)
25 Danielle Cullen A'Landell Ko Do 2 (BC) 7:39:00 9.4, 11.7 10.46 50, 48, 51 (Avg:49)
36 Ron Haigh Dakila Pascalle 3 7:57:00 8.6, 11.9 10.06 31, 47, 49 (Avg:48)
32 Caroline Fitzgerald Lanamere Kudos 4 8:57:00 8.1, 9.9 8.94 36, 52, 53 (Avg:52)
22 Jan Tyrrell Willandra Wind Lancer 4 8:57:00 8.3, 9.6 8.94 34, 43, 46 (Avg:44)
27 Rosemary Skipper Harmony Park Spirit 6 9:00:00 8.0, 9.8 8.89 33, 47, 48 (Avg:47)
13 Karen Fields Duwurri Midnite Magic 7 9:09:00 6.9, 11.7 8.74 30, 42, 47 (Avg:44)
16 Stephen Gray Shartier el shareef 8 9:23:00 7.9, 9.1 8.53 43, 46, 53 (Avg:49)
7 Ben Caslick D-Lua Park Moniette 9 9:30:00 8.2, 8.5 8.42 40, 54, 46 (Avg:50)
11 Tracy Haack A'Landell Rifle 10 9:32:00 7.5, 9.3 8.39 34, 44, 43 (Avg:43)
12 Ruth Van der Wegen A'Landell Kahal 10 9:32:00 7.5, 9.3 8.39 44, 48, 50 (Avg:49)
34 Kim Van Der Wegen Macquarie Park Roshan 10 9:32:00 7.5, 9.3 8.39 43, 45, 51 (Avg:48)
37 Bridget Nottle Rhinestone te 13 11:42:00 6.8, 6.7 6.84 37, 42, 55 (Avg:48)
20 Billie Barron Shardell Sharana Golden Heart Rate L2 0:00:00 10.1, 11.1 - 34, 52, 67 (Avg:59)
23 Luke Andrzejewski Marneross Ataa Lame L1 0:00:00 6.2 - 34, 49 (Avg:49)
18 Justin Otto Hillbrae Kaszan Heart Rate L1 0:00:00 10.9 - 35, 58 (Avg:58)
39 Johann Willemse Magdalina Withdrawn L1 0:00:00 - - 36, 50 (Avg:50)
Lightweight
35 Nina Jackson Jael 1 7:39:00 9.4, 11.7 10.46 37, 49, 46 (Avg:47)
24 Bec Miller Hirstglen Conquistador 1 (BC) 7:39:00 9.4, 11.7 10.46 47, 43, 46 (Avg:44)
8 Susan Kelman Jayhal Moonlight 3 7:57:00 10.0, 10.0 10.06 38, 42, 55 (Avg:48)
33 Lisa Sanchez Lanamere D'Or 4 8:57:00 8.1, 9.9 8.94 36, 48, 52 (Avg:50)
1 Angela Hawks Siberia 5 9:00:00 8.2, 9.5 8.89 36, 44, 45 (Avg:44)
9 Margaret Harvey Banbra Tamara 6 9:11:00 7.5, 10.2 8.71 38, 45, 51 (Avg:48)
Junior
5 Aime Newton Stanpark Rupert 1 7:32:00 8.7, 13.5 10.62 46, 45, 51 (Avg:48)
3 Billie Standfield Stanpark Meg 1 (BC) 7:32:00 8.7, 13.5 10.62 37, 43, 48 (Avg:45)
21 Alana Sanchez Shamazan Kalisha 3 9:25:00 6.8, 11.1 8.50 34, 43, 56 (Avg:49)
19 David Anderson Jnr Ashwind 4 11:42:00 9.9, 5.2 6.84 36, 38, 48 (Avg:43)
40 Natasha Willemse Cinderella te 4 11:42:00 6.8, 6.7 6.84 36, 39, 45 (Avg:42)
2 Hannah Houlden Tristram Blaze of Glory Withdrawn L1 0:00:00 - - 40, 41 (Avg:41)
4 Lainie Zischke Glenewan Sprite Metabolics L1 0:00:00 9.9 - 36, 75 (Avg:75)